Time;durP1;ratioP1;P1;durP2;ratioP2;P2;SDS_P1;SDS_P2;PMS_P1;PMS_P2;Temp;Humidity;BMP_temperature;BMP_pressure;BME280_temperature;BME280_humidity;BME280_pressure;Samples;Min_cycle;Max_cycle;Signal;HPM_P1;HPM_P2
2022/03/06 00:00:46;;;;;;;11.27;5.22;;;;;;;0.71;58.09;99186.66;5071997;28;20052;-65
2022/03/06 00:03:32;;;;;;;12.10;5.72;;;;;;;0.81;57.56;99182.16;5072128;28;20067;-65
2022/03/06 00:06:18;;;;;;;12.43;5.68;;;;;;;0.68;58.32;99183.28;5057107;28;20068;-65
2022/03/06 00:09:04;;;;;;;11.32;5.65;;;;;;;0.54;58.71;99181.81;5062394;28;20060;-65
2022/03/06 00:11:50;;;;;;;18.60;7.38;;;;;;;0.22;60.08;99181.63;5071016;28;20056;-65
2022/03/06 00:14:36;;;;;;;15.50;7.78;;;;;;;-0.08;61.68;99183.03;5070453;28;20407;-65
2022/03/06 00:17:21;;;;;;;14.73;6.25;;;;;;;-0.13;61.90;99178.81;5071785;28;20602;-66
2022/03/06 00:20:08;;;;;;;14.65;6.85;;;;;;;0.11;61.00;99176.63;5071594;28;20052;-65
2022/03/06 00:22:55;;;;;;;19.35;7.13;;;;;;;0.32;60.05;99179.69;5076614;28;20055;-66
2022/03/06 00:25:40;;;;;;;14.63;6.97;;;;;;;0.32;60.12;99177.13;5071889;28;20059;-65
2022/03/06 00:28:26;;;;;;;15.95;7.03;;;;;;;0.31;60.37;99178.00;5048762;28;20079;-66
2022/03/06 00:31:13;;;;;;;12.30;6.57;;;;;;;0.13;60.64;99171.50;5076537;28;20059;-65
2022/03/06 00:33:58;;;;;;;13.02;6.50;;;;;;;0.16;60.51;99174.00;5062543;28;20079;-65
2022/03/06 00:36:44;;;;;;;13.57;6.30;;;;;;;0.25;60.35;99170.38;5056486;28;20055;-65
2022/03/06 00:39:30;;;;;;;17.45;7.03;;;;;;;-0.08;61.83;99172.72;5056403;28;20056;-65
2022/03/06 00:42:15;;;;;;;12.80;5.57;;;;;;;-0.06;61.76;99174.38;5048208;28;20060;-65
2022/03/06 00:45:01;;;;;;;17.58;6.90;;;;;;;0.12;61.26;99172.34;5071579;28;20514;-65
2022/03/06 00:47:46;;;;;;;13.73;6.60;;;;;;;0.20;60.78;99172.19;5077807;28;20055;-64
2022/03/06 00:50:34;;;;;;;16.63;6.93;;;;;;;0.26;60.73;99171.25;5042377;28;20072;-65
2022/03/06 00:53:20;;;;;;;19.75;7.88;;;;;;;0.31;60.41;99172.84;5071783;28;20059;-65
2022/03/06 00:56:06;;;;;;;13.02;6.35;;;;;;;0.22;60.65;99171.31;5071480;28;20384;-65
2022/03/06 00:58:51;;;;;;;15.00;6.50;;;;;;;0.39;59.53;99166.69;5056044;28;20056;-65
2022/03/06 01:01:37;;;;;;;18.05;7.10;;;;;;;0.47;59.45;99173.38;5077553;28;20510;-65
2022/03/06 01:04:23;;;;;;;17.75;6.82;;;;;;;0.52;59.30;99167.28;5070908;28;20495;-65
2022/03/06 01:07:09;;;;;;;13.63;6.57;;;;;;;0.50;58.91;99169.91;5071294;28;20171;-65
2022/03/06 01:09:54;;;;;;;11.75;6.38;;;;;;;0.50;58.44;99169.91;5071503;28;20056;-65
2022/03/06 01:12:40;;;;;;;16.02;6.57;;;;;;;0.38;59.50;99170.16;5061896;28;20048;-64
2022/03/06 01:15:26;;;;;;;14.35;5.95;;;;;;;0.41;59.60;99170.91;5068628;28;20064;-64
2022/03/06 01:18:12;;;;;;;15.07;6.75;;;;;;;0.35;60.16;99173.63;5058831;28;20044;-65
2022/03/06 01:20:58;;;;;;;17.45;6.57;;;;;;;0.46;59.81;99160.50;5061820;28;20052;-65
2022/03/06 01:23:43;;;;;;;14.65;6.45;;;;;;;0.37;60.09;99166.72;5061810;28;20476;-65
2022/03/06 01:26:29;;;;;;;18.98;7.22;;;;;;;0.39;60.39;99156.38;5053955;28;20162;-64
2022/03/06 01:29:15;;;;;;;12.88;6.35;;;;;;;0.30;60.33;99160.84;5053933;28;20056;-65
2022/03/06 01:32:00;;;;;;;14.05;6.90;;;;;;;0.31;60.32;99157.38;5041241;28;20079;-64
2022/03/06 01:34:46;;;;;;;15.25;6.68;;;;;;;0.24;60.78;99163.53;5056378;28;20068;-65
2022/03/06 01:37:32;;;;;;;15.40;7.30;;;;;;;0.06;61.48;99162.16;5045387;28;20060;-65
2022/03/06 01:40:18;;;;;;;16.10;8.13;;;;;;;-0.15;62.41;99159.13;5055197;28;20056;-64
2022/03/06 01:43:04;;;;;;;14.05;6.07;;;;;;;-0.22;62.28;99157.50;5053623;28;20056;-65
2022/03/06 01:45:49;;;;;;;14.90;7.07;;;;;;;-0.30;62.83;99161.09;5054708;28;20060;-65
2022/03/06 01:48:35;;;;;;;17.40;7.65;;;;;;;-0.41;63.34;99160.41;5054440;28;20412;-65
2022/03/06 01:51:20;;;;;;;13.98;6.72;;;;;;;-0.27;62.03;99149.88;5054434;28;20110;-65
2022/03/06 01:54:06;;;;;;;11.93;6.03;;;;;;;0.17;59.33;99151.63;5054371;28;20428;-65
2022/03/06 01:56:52;;;;;;;14.65;6.45;;;;;;;0.24;59.80;99148.06;5054734;28;20052;-64
2022/03/06 01:59:37;;;;;;;13.35;6.80;;;;;;;0.10;60.59;99153.47;5054269;28;20476;-65
2022/03/06 02:02:23;;;;;;;16.20;5.88;;;;;;;-0.33;61.89;99165.44;5039047;28;20056;-66
2022/03/06 02:05:09;;;;;;;12.48;6.70;;;;;;;-0.48;63.17;99162.25;5053173;28;20503;-65
2022/03/06 02:07:55;;;;;;;13.15;5.90;;;;;;;-0.44;60.83;99156.16;5054459;28;20523;-65
2022/03/06 02:10:40;;;;;;;12.82;6.13;;;;;;;-0.40;62.16;99162.09;5054602;28;20074;-65
2022/03/06 02:13:27;;;;;;;17.63;8.40;;;;;;;-0.31;62.37;99163.69;5056192;28;20060;-65
2022/03/06 02:16:13;;;;;;;11.75;5.97;;;;;;;-0.58;63.01;99151.25;5039861;28;20048;-65
2022/03/06 02:18:58;;;;;;;15.20;6.63;;;;;;;-0.41;62.88;99150.94;5039740;28;20075;-65
2022/03/06 02:21:48;;;;;;;13.77;6.28;;;;;;;-0.19;62.19;99145.44;5057295;28;20420;-65
2022/03/06 02:24:33;;;;;;;16.10;6.63;;;;;;;-0.05;61.16;99145.16;5081066;28;20411;-67
2022/03/06 02:27:20;;;;;;;15.27;7.28;;;;;;;-0.17;61.74;99154.00;5058239;28;20059;-65
2022/03/06 02:30:11;;;;;;;12.70;6.45;;;;;;;-0.24;62.34;99148.97;5050731;28;20059;-65
2022/03/06 02:32:59;;;;;;;16.75;6.00;;;;;;;-0.18;61.51;99149.69;5080188;28;20056;-64
2022/03/06 02:35:44;;;;;;;18.52;6.78;;;;;;;-0.40;62.48;99155.25;5073852;28;20052;-65
2022/03/06 02:38:30;;;;;;;14.07;6.03;;;;;;;-0.33;62.58;99150.84;5072614;28;20080;-65
2022/03/06 02:41:17;;;;;;;12.90;6.30;;;;;;;-0.25;62.06;99153.28;5073593;28;20451;-64
2022/03/06 02:44:02;;;;;;;11.80;6.20;;;;;;;-0.23;61.81;99146.38;5073623;28;20055;-65
2022/03/06 02:46:48;;;;;;;12.38;6.60;;;;;;;-0.48;63.06;99148.50;5073914;28;20067;-65
2022/03/06 02:49:34;;;;;;;11.65;5.53;;;;;;;-0.55;63.11;99147.75;5064535;28;20503;-65
2022/03/06 02:52:20;;;;;;;18.55;8.13;;;;;;;-1.09;65.96;99144.34;5053769;28;20056;-65
2022/03/06 02:55:08;;;;;;;17.00;8.00;;;;;;;-0.93;65.67;99143.22;5051698;28;20059;-65
2022/03/06 02:57:54;;;;;;;10.30;5.43;;;;;;;-0.86;65.09;99149.13;5069757;28;20051;-65
2022/03/06 03:00:40;;;;;;;15.13;6.40;;;;;;;-0.90;65.24;99148.31;5067918;28;20052;-65
2022/03/06 03:03:26;;;;;;;11.10;6.53;;;;;;;-0.84;64.90;99143.94;5051693;28;20519;-65
2022/03/06 03:06:11;;;;;;;15.93;8.75;;;;;;;-0.66;64.54;99153.97;5051404;28;20159;-64
2022/03/06 03:08:58;;;;;;;17.42;7.72;;;;;;;-0.62;64.12;99152.19;5043088;28;20084;-65
2022/03/06 03:11:44;;;;;;;14.18;7.05;;;;;;;-0.52;62.78;99152.84;5051517;28;20059;-64
2022/03/06 03:14:32;;;;;;;16.05;7.90;;;;;;;-0.52;63.72;99152.84;5052357;28;20110;-65
2022/03/06 03:17:17;;;;;;;15.63;7.50;;;;;;;-0.72;64.64;99151.50;5052229;28;20542;-64
2022/03/06 03:20:05;;;;;;;15.00;6.55;;;;;;;-0.62;63.36;99157.34;5037241;28;20487;-65
2022/03/06 03:22:51;;;;;;;13.00;6.70;;;;;;;-0.56;63.03;99157.22;5052207;28;20515;-65
2022/03/06 03:25:36;;;;;;;13.07;6.35;;;;;;;-0.39;63.32;99153.50;5037143;28;20068;-64
2022/03/06 03:28:22;;;;;;;13.88;6.35;;;;;;;-0.22;62.31;99154.94;5037145;28;20060;-64
2022/03/06 03:31:07;;;;;;;15.23;7.57;;;;;;;-0.01;61.51;99149.41;5051798;28;20056;-64
2022/03/06 03:33:53;;;;;;;17.50;6.63;;;;;;;-0.02;60.59;99145.09;5051627;28;20060;-65
2022/03/06 03:36:39;;;;;;;14.68;6.47;;;;;;;0.09;60.46;99154.38;5052062;28;20056;-64
2022/03/06 03:39:26;;;;;;;13.02;6.28;;;;;;;0.02;61.80;99150.22;5037001;28;20056;-65
2022/03/06 03:42:12;;;;;;;15.75;7.00;;;;;;;-0.35;63.31;99160.31;5036790;28;20070;-64
2022/03/06 03:44:57;;;;;;;15.93;7.07;;;;;;;-0.44;63.69;99156.16;5056591;28;20068;-64
2022/03/06 03:47:43;;;;;;;16.25;7.15;;;;;;;-0.38;63.30;99162.94;5052379;28;20083;-64
2022/03/06 03:50:29;;;;;;;12.70;6.50;;;;;;;-0.37;62.69;99164.63;5051871;28;20064;-64
2022/03/06 03:53:14;;;;;;;15.50;7.00;;;;;;;-0.23;62.93;99164.41;5051830;28;20056;-64
2022/03/06 03:56:00;;;;;;;12.93;6.25;;;;;;;-0.47;63.38;99163.09;5036202;28;20064;-65
2022/03/06 03:58:46;;;;;;;12.88;6.63;;;;;;;-0.29;62.56;99159.34;5042607;28;20070;-64
2022/03/06 04:01:31;;;;;;;13.07;6.75;;;;;;;-0.15;62.17;99170.25;5051699;28;20068;-64
2022/03/06 04:04:17;;;;;;;12.75;6.75;;;;;;;-0.23;61.49;99164.41;5051442;28;20111;-64
2022/03/06 04:07:03;;;;;;;15.65;7.00;;;;;;;-0.39;62.56;99164.66;5057457;28;20060;-64
2022/03/06 04:09:49;;;;;;;16.85;8.23;;;;;;;-0.60;63.94;99165.88;5051410;28;20079;-64
2022/03/06 04:12:34;;;;;;;10.52;6.13;;;;;;;-0.60;63.73;99176.16;5042409;28;20060;-64
2022/03/06 04:15:20;;;;;;;13.45;6.10;;;;;;;-0.64;64.31;99175.34;5051468;28;20076;-65
2022/03/06 04:18:06;;;;;;;16.70;7.03;;;;;;;-0.69;64.69;99173.75;5051132;28;20068;-66
2022/03/06 04:20:51;;;;;;;18.55;8.63;;;;;;;-0.73;64.48;99167.78;5050520;28;20107;-65
2022/03/06 04:23:37;;;;;;;15.52;7.47;;;;;;;-0.90;65.56;99168.88;5050535;28;20187;-64
2022/03/06 04:26:22;;;;;;;16.58;7.72;;;;;;;-0.60;64.50;99173.59;5036245;28;20060;-65
2022/03/06 04:29:08;;;;;;;15.50;6.85;;;;;;;-0.79;64.71;99176.47;5051377;28;20064;-64
2022/03/06 04:31:54;;;;;;;16.25;7.55;;;;;;;-0.68;64.06;99176.28;5050291;28;20060;-65
2022/03/06 04:34:39;;;;;;;15.32;7.43;;;;;;;-0.69;64.19;99166.88;5051079;28;20060;-65
2022/03/06 04:37:25;;;;;;;14.43;7.07;;;;;;;-0.83;64.91;99176.53;5050900;28;20408;-65
2022/03/06 04:40:11;;;;;;;14.77;7.15;;;;;;;-0.80;65.12;99177.31;5051060;28;20075;-65
2022/03/06 04:42:57;;;;;;;15.57;6.80;;;;;;;-0.92;65.10;99175.78;5036077;28;20060;-65
2022/03/06 04:45:43;;;;;;;21.90;9.75;;;;;;;-0.86;65.58;99177.41;5049825;28;20056;-65
2022/03/06 04:48:29;;;;;;;17.73;8.85;;;;;;;-0.82;65.55;99191.09;5055594;28;20083;-67
2022/03/06 04:51:15;;;;;;;22.23;11.02;;;;;;;-0.68;65.12;99188.28;5051204;28;20063;-65
2022/03/06 04:54:01;;;;;;;18.90;9.15;;;;;;;-0.82;65.37;99185.94;5049985;28;20068;-66
2022/03/06 04:56:47;;;;;;;17.85;7.68;;;;;;;-1.01;65.67;99184.47;5054269;28;20055;-65
2022/03/06 04:59:33;;;;;;;19.27;7.50;;;;;;;-0.81;64.85;99187.63;5045721;28;20134;-65
2022/03/06 05:02:19;;;;;;;17.50;7.15;;;;;;;-0.82;64.61;99185.94;5052040;28;20056;-64
2022/03/06 05:05:05;;;;;;;15.43;7.80;;;;;;;-0.72;64.65;99189.22;5035765;28;20112;-65
2022/03/06 05:07:51;;;;;;;17.40;8.35;;;;;;;-0.68;64.54;99186.59;5035653;28;20056;-59
2022/03/06 05:10:37;;;;;;;23.85;10.05;;;;;;;-0.60;64.26;99194.19;5054464;28;20413;-65
2022/03/06 05:13:23;;;;;;;18.00;8.38;;;;;;;-0.83;64.94;99189.41;5059712;28;20484;-65
2022/03/06 05:16:09;;;;;;;24.15;9.77;;;;;;;-0.81;65.01;99190.22;5042324;28;20044;-64
2022/03/06 05:18:56;;;;;;;19.40;8.75;;;;;;;-0.80;64.72;99184.22;5061344;28;20056;-65
2022/03/06 05:21:41;;;;;;;17.55;8.18;;;;;;;-0.69;64.34;99189.19;5070795;28;20376;-65
2022/03/06 05:24:28;;;;;;;19.00;8.65;;;;;;;-0.75;64.74;99190.09;5070468;28;20064;-65
2022/03/06 05:27:13;;;;;;;16.70;8.00;;;;;;;-0.64;64.24;99187.41;5050963;28;20055;-65
2022/03/06 05:29:59;;;;;;;17.33;8.15;;;;;;;-0.56;63.98;99194.97;5027672;28;20076;-65
2022/03/06 05:32:45;;;;;;;16.15;8.35;;;;;;;-0.65;64.60;99195.97;5049586;28;20072;-63
2022/03/06 05:35:31;;;;;;;15.48;7.80;;;;;;;-0.54;64.14;99186.34;5053451;28;20055;-66
2022/03/06 05:38:16;;;;;;;15.23;7.25;;;;;;;-0.46;63.83;99188.81;5063927;28;20083;-64
2022/03/06 05:41:03;;;;;;;18.40;7.82;;;;;;;-0.50;64.42;99194.88;5056137;28;20055;-66
2022/03/06 05:43:48;;;;;;;13.43;6.35;;;;;;;-0.50;71.42;99192.31;5071087;28;20060;-64
2022/03/06 05:46:34;;;;;;;17.88;8.00;;;;;;;-0.65;71.94;99194.25;5073690;28;20064;-64
2022/03/06 05:49:20;;;;;;;15.13;7.18;;;;;;;-0.79;71.00;99194.47;5079991;28;20075;-63
2022/03/06 05:52:06;;;;;;;16.77;7.20;;;;;;;-0.81;68.14;99198.78;5054002;28;20059;-64
2022/03/06 05:54:51;;;;;;;17.10;6.97;;;;;;;-0.89;67.68;99198.91;5070682;28;20063;-63
2022/03/06 05:57:37;;;;;;;18.40;8.00;;;;;;;-0.83;67.23;99199.69;5050561;28;20563;-64
2022/03/06 06:00:23;;;;;;;16.67;7.57;;;;;;;-1.24;67.70;99190.78;5050240;28;20412;-63
2022/03/06 06:03:08;;;;;;;17.63;7.82;;;;;;;-1.14;68.23;99185.53;5053926;28;20061;-64
2022/03/06 06:05:54;;;;;;;14.85;7.43;;;;;;;-0.79;66.83;99193.63;5053806;28;20408;-64
2022/03/06 06:08:40;;;;;;;16.05;7.10;;;;;;;-0.61;65.92;99195.06;5024893;28;20052;-63
2022/03/06 06:11:25;;;;;;;14.23;7.18;;;;;;;-0.59;65.34;99192.47;5053657;28;20087;-63
2022/03/06 06:14:11;;;;;;;14.57;7.45;;;;;;;-0.56;65.03;99198.41;5053442;28;20056;-61
2022/03/06 06:16:57;;;;;;;15.52;6.65;;;;;;;-0.51;64.24;99198.34;5053450;28;20483;-61
2022/03/06 06:19:42;;;;;;;15.05;7.32;;;;;;;-0.38;64.11;99194.66;5044529;28;20060;-63
2022/03/06 06:22:28;;;;;;;13.65;5.65;;;;;;;-0.11;76.88;99193.41;5053352;28;20064;-64
2022/03/06 06:25:14;;;;;;;11.88;6.28;;;;;;;-0.36;71.89;99197.25;5053104;28;20051;-69
2022/03/06 06:28:00;;;;;;;13.73;6.55;;;;;;;-0.59;72.16;99195.03;5024773;28;20067;-66
2022/03/06 06:30:46;;;;;;;17.17;7.10;;;;;;;-0.50;69.71;99193.16;5056610;28;20063;-62
2022/03/06 06:33:32;;;;;;;14.50;7.07;;;;;;;-0.54;68.82;99203.53;5072899;28;20064;-63
2022/03/06 06:36:18;;;;;;;16.58;8.32;;;;;;;-0.34;66.76;99195.47;5069190;28;20311;-65
2022/03/06 06:39:03;;;;;;;14.70;7.63;;;;;;;-0.32;66.91;99205.75;5062719;28;20115;-66
2022/03/06 06:41:49;;;;;;;15.38;6.43;;;;;;;-0.23;66.23;99200.47;5073035;28;20052;-65
2022/03/06 06:44:35;;;;;;;13.65;7.03;;;;;;;-0.47;66.48;99209.44;5063232;28;20609;-64
2022/03/06 06:47:20;;;;;;;14.23;7.65;;;;;;;-0.51;66.83;99216.38;5057862;28;20063;-66
2022/03/06 06:50:06;;;;;;;19.35;7.28;;;;;;;-0.45;66.37;99218.84;5073012;28;20518;-62
2022/03/06 06:52:52;;;;;;;15.68;7.40;;;;;;;-0.44;66.92;99212.81;5072828;28;20502;-62
2022/03/06 06:55:38;;;;;;;14.43;7.57;;;;;;;-0.21;65.97;99223.63;5080488;28;20513;-60
2022/03/06 06:58:23;;;;;;;16.90;8.10;;;;;;;-0.17;65.36;99225.25;5092724;28;20078;-60
2022/03/06 07:01:09;;;;;;;18.27;7.82;;;;;;;-0.32;66.01;99213.47;5070822;28;20079;-68
2022/03/06 07:03:55;;;;;;;17.45;7.53;;;;;;;-0.26;65.42;99226.25;5052698;28;20385;-59
2022/03/06 07:06:41;;;;;;;19.85;9.10;;;;;;;-0.17;65.65;99214.94;5029746;28;20408;-60
2022/03/06 07:09:27;;;;;;;13.10;6.57;;;;;;;0.70;79.62;99220.22;5042331;28;20056;-58
2022/03/06 07:12:12;;;;;;;18.98;8.77;;;;;;;0.64;73.27;99220.34;5077387;28;20043;-60
2022/03/06 07:14:58;;;;;;;15.20;7.90;;;;;;;0.45;69.91;99228.44;5064166;28;20055;-60
2022/03/06 07:17:44;;;;;;;19.90;8.05;;;;;;;0.47;68.30;99230.09;5064852;28;20511;-60
2022/03/06 07:20:30;;;;;;;18.05;9.38;;;;;;;0.56;66.50;99226.50;5055268;28;20495;-60
2022/03/06 07:23:16;;;;;;;16.67;8.45;;;;;;;1.22;73.50;99225.13;5042373;28;20862;-61
2022/03/06 07:26:02;;;;;;;15.90;8.05;;;;;;;1.63;65.80;99224.19;5063511;28;20068;-61
2022/03/06 07:28:48;;;;;;;27.75;11.68;;;;;;;1.80;62.69;99223.75;5056985;28;20051;-60
2022/03/06 07:31:34;;;;;;;20.98;9.52;;;;;;;1.84;65.05;99217.63;5071995;28;20514;-60
2022/03/06 07:34:19;;;;;;;26.70;10.75;;;;;;;2.08;61.01;99223.06;5057782;28;20562;-60
2022/03/06 07:37:06;;;;;;;22.63;10.38;;;;;;;1.96;62.75;99221.63;5055845;28;20060;-60
2022/03/06 07:39:51;;;;;;;20.20;10.23;;;;;;;1.66;63.03;99224.13;4915036;28;114311;-60
2022/03/06 07:42:37;;;;;;;24.98;12.40;;;;;;;2.34;60.25;99222.38;4998454;28;20061;-60
2022/03/06 07:45:23;;;;;;;27.60;11.77;;;;;;;1.63;68.06;99221.59;5003373;28;20525;-59
2022/03/06 07:48:09;;;;;;;17.48;7.53;;;;;;;3.28;95.41;99221.41;5012478;28;20072;-52
2022/03/06 07:50:54;;;;;;;28.52;12.88;;;;;;;6.87;71.55;99215.63;4997772;28;20060;-58
2022/03/06 07:53:40;;;;;;;23.20;11.43;;;;;;;5.74;50.25;99217.00;5031324;28;20412;-57
2022/03/06 07:56:26;;;;;;;19.60;11.25;;;;;;;5.32;49.38;99210.03;5031948;28;20159;-59
2022/03/06 07:59:12;;;;;;;22.80;11.73;;;;;;;5.09;48.09;99216.97;5031627;28;20060;-57
2022/03/06 08:01:58;;;;;;;21.83;9.90;;;;;;;5.72;48.29;99210.13;5031897;28;20064;-57
2022/03/06 08:04:44;;;;;;;21.30;10.45;;;;;;;5.55;48.09;99204.72;5031601;28;20492;-57
2022/03/06 08:07:30;;;;;;;24.05;11.18;;;;;;;5.58;47.32;99215.91;5031628;28;20503;-58
2022/03/06 08:10:15;;;;;;;17.50;9.57;;;;;;;6.65;55.09;99214.00;5031434;28;20059;-61
2022/03/06 08:13:02;;;;;;;19.75;9.90;;;;;;;7.86;43.03;99213.59;5016197;28;20064;-57
2022/03/06 08:15:47;;;;;;;19.60;10.05;;;;;;;7.36;42.52;99214.22;5030911;28;20079;-62
2022/03/06 08:18:33;;;;;;;21.58;10.52;;;;;;;7.00;43.17;99209.84;5029790;28;20061;-59
2022/03/06 08:21:19;;;;;;;19.60;9.23;;;;;;;7.62;41.37;99201.69;5014425;28;20056;-62
2022/03/06 08:24:06;;;;;;;20.35;11.13;;;;;;;8.10;40.59;99208.03;5022035;28;20081;-62
2022/03/06 08:26:52;;;;;;;26.45;12.40;;;;;;;8.92;38.78;99196.84;5030314;28;20060;-60
2022/03/06 08:29:37;;;;;;;20.98;9.52;;;;;;;8.50;39.05;99198.13;5029911;28;20068;-60
2022/03/06 08:32:23;;;;;;;18.90;9.45;;;;;;;8.25;38.88;99206.41;5029623;28;20057;-64
2022/03/06 08:35:09;;;;;;;15.18;9.23;;;;;;;9.03;45.13;99201.47;5020107;28;20064;-62
2022/03/06 08:37:55;;;;;;;19.08;9.63;;;;;;;8.69;38.88;99198.94;5028606;28;20424;-62
2022/03/06 08:40:40;;;;;;;15.98;7.90;;;;;;;9.28;39.62;99192.28;5015037;28;20068;-51
2022/03/06 08:43:26;;;;;;;13.75;8.43;;;;;;;7.20;37.44;99198.47;5036671;28;20409;-58
2022/03/06 08:46:12;;;;;;;12.18;6.55;;;;;;;7.43;37.07;99198.28;5031263;28;20072;-56
2022/03/06 08:48:57;;;;;;;13.52;7.40;;;;;;;7.68;37.23;99197.94;5021459;28;20069;-58
2022/03/06 08:51:43;;;;;;;12.27;6.68;;;;;;;6.81;37.65;99189.84;5031814;28;20080;-57
2022/03/06 08:54:29;;;;;;;11.88;6.85;;;;;;;8.13;35.78;99198.28;5032316;28;20056;-52
2022/03/06 08:57:14;;;;;;;13.20;6.93;;;;;;;9.21;34.91;99197.84;5030583;28;20064;-54
2022/03/06 09:00:00;;;;;;;14.82;6.55;;;;;;;8.19;35.37;99188.47;5029450;28;20072;-55
2022/03/06 09:02:46;;;;;;;13.07;6.43;;;;;;;10.52;39.16;99180.75;5011410;28;20061;-55
2022/03/06 09:05:32;;;;;;;9.77;5.43;;;;;;;9.98;45.85;99183.91;5023956;28;20056;-56
2022/03/06 09:08:18;;;;;;;10.90;5.35;;;;;;;10.99;39.00;99178.72;5011793;28;20133;-57
2022/03/06 09:11:05;;;;;;;10.32;5.45;;;;;;;11.56;29.81;99186.44;5010101;28;20069;-59
2022/03/06 09:13:51;;;;;;;10.20;5.88;;;;;;;9.96;31.54;99188.38;5015261;28;20057;-62
2022/03/06 09:16:37;;;;;;;9.90;6.55;;;;;;;8.45;32.77;99187.09;5029807;28;20057;-59
2022/03/06 09:19:23;;;;;;;10.25;5.68;;;;;;;9.64;41.94;99178.03;5030875;28;20063;-57
2022/03/06 09:22:08;;;;;;;8.73;5.20;;;;;;;9.49;35.46;99179.75;5029492;28;20416;-56
2022/03/06 09:24:54;;;;;;;7.18;4.45;;;;;;;9.80;36.75;99175.34;5030580;28;20065;-57
2022/03/06 09:27:40;;;;;;;8.23;4.95;;;;;;;10.49;38.26;99168.69;5030684;28;20144;-54
2022/03/06 09:30:26;;;;;;;7.53;5.10;;;;;;;10.67;33.38;99152.78;5029313;28;20056;-54
2022/03/06 09:33:12;;;;;;;7.53;5.07;;;;;;;11.42;42.27;99162.00;5024930;28;20076;-55
2022/03/06 09:35:58;;;;;;;8.75;4.63;;;;;;;11.25;33.75;99160.44;5032876;28;20056;-57
2022/03/06 09:38:44;;;;;;;10.95;5.22;;;;;;;10.07;37.24;99152.88;5017920;28;20725;-57
2022/03/06 09:41:30;;;;;;;7.93;4.97;;;;;;;11.87;36.73;99157.31;5013276;28;20080;-56
2022/03/06 09:44:16;;;;;;;12.07;5.47;;;;;;;10.95;29.21;99156.25;5033974;28;20061;-58
2022/03/06 09:47:05;;;;;;;9.65;5.28;;;;;;;10.42;28.55;99159.50;5033789;28;20156;-57
2022/03/06 09:49:50;;;;;;;10.07;5.57;;;;;;;9.73;28.44;99159.19;5006319;28;20065;-60
2022/03/06 09:52:36;;;;;;;11.98;6.15;;;;;;;9.42;28.71;99160.94;5034200;28;20080;-60
2022/03/06 09:55:22;;;;;;;11.15;5.78;;;;;;;9.29;35.97;99149.50;5033601;28;20060;-59
2022/03/06 09:58:08;;;;;;;10.45;6.70;;;;;;;8.89;35.40;99150.84;5009108;28;20077;-60
2022/03/06 10:00:54;;;;;;;9.43;4.78;;;;;;;10.97;51.09;99151.75;5014287;28;20072;-53
2022/03/06 10:03:40;;;;;;;13.65;6.95;;;;;;;10.20;29.72;99148.56;4999715;28;20428;-59
2022/03/06 10:06:26;;;;;;;12.38;6.45;;;;;;;7.80;31.80;99159.13;5013464;28;20065;-59
2022/03/06 10:09:11;;;;;;;13.00;7.70;;;;;;;8.98;31.29;99146.84;5019445;28;20064;-59
2022/03/06 10:11:57;;;;;;;13.13;8.00;;;;;;;10.81;28.53;99139.63;5016625;28;20076;-59
2022/03/06 10:14:44;;;;;;;13.82;7.68;;;;;;;9.50;29.77;99147.44;5029426;28;20057;-59
2022/03/06 10:17:31;;;;;;;16.83;8.07;;;;;;;9.44;30.85;99140.78;5014350;28;20051;-57
2022/03/06 10:20:18;;;;;;;17.25;8.70;;;;;;;10.41;31.00;99142.94;5032026;28;20064;-58
2022/03/06 10:23:04;;;;;;;15.82;8.63;;;;;;;11.89;30.15;99137.06;5029180;28;20053;-56
2022/03/06 10:26:00;;;;;;;15.38;9.05;;;;;;;10.98;29.56;99137.72;5031853;28;20761;-57
2022/03/06 10:28:49;;;;;;;14.90;8.82;;;;;;;11.86;29.56;99140.75;5031739;28;20056;-56
2022/03/06 10:31:36;;;;;;;16.83;8.65;;;;;;;12.81;27.33;99126.31;5022444;28;20405;-58
2022/03/06 10:34:36;;;;;;;16.63;9.52;;;;;;;11.27;28.18;99132.34;5026022;28;20409;-58
2022/03/06 10:37:23;;;;;;;16.02;8.90;;;;;;;11.96;28.19;99135.69;5029285;28;20441;-58
2022/03/06 10:40:14;;;;;;;17.67;9.55;;;;;;;11.23;28.54;99136.09;5030135;28;20052;-62
2022/03/06 10:43:00;;;;;;;15.70;9.27;;;;;;;10.30;29.16;99137.50;5029731;28;20060;-59
2022/03/06 10:45:47;;;;;;;17.73;9.60;;;;;;;9.46;30.24;99127.63;5032702;28;20511;-55
2022/03/06 10:48:33;;;;;;;15.43;9.00;;;;;;;10.57;30.36;99128.91;5032701;28;20056;-57
2022/03/06 10:51:20;;;;;;;16.73;8.77;;;;;;;11.27;31.67;99126.25;5024369;28;20060;-58
2022/03/06 10:54:06;;;;;;;17.27;9.07;;;;;;;11.97;27.43;99116.38;5033715;28;20065;-58
2022/03/06 10:56:52;;;;;;;19.55;10.00;;;;;;;10.41;29.26;99118.53;5031526;28;20084;-59
2022/03/06 10:59:40;;;;;;;15.73;9.27;;;;;;;10.53;28.11;99125.66;5033146;28;20417;-59
2022/03/06 11:02:27;;;;;;;15.23;9.07;;;;;;;9.66;30.20;99123.81;5012970;28;20057;-59
2022/03/06 11:05:13;;;;;;;15.05;7.65;;;;;;;10.52;28.68;99115.28;5011733;28;20528;-60
2022/03/06 11:07:59;;;;;;;15.82;8.23;;;;;;;8.68;32.23;99108.47;5003828;28;20057;-59
2022/03/06 11:10:45;;;;;;;13.02;8.00;;;;;;;8.60;33.69;99111.50;5013040;28;20056;-58
2022/03/06 11:13:30;;;;;;;13.63;7.78;;;;;;;10.60;29.21;99105.16;5012973;28;20601;-59
2022/03/06 11:16:17;;;;;;;15.02;8.65;;;;;;;11.63;28.69;99110.78;5012644;28;20057;-60
2022/03/06 11:19:03;;;;;;;15.32;8.70;;;;;;;10.19;29.68;99098.91;5003472;28;20064;-58
2022/03/06 11:21:55;;;;;;;16.05;9.07;;;;;;;8.19;32.41;99094.50;5012664;28;20370;-59
2022/03/06 11:24:45;;;;;;;;;;;;;;;7.81;34.31;99096.44;5029589;28;20049;-57
2022/03/06 11:27:40;;;;;;;13.20;7.55;;;;;;;9.83;30.95;99085.34;5029027;28;19917;-60
2022/03/06 11:30:26;;;;;;;15.02;7.63;;;;;;;11.19;28.67;99088.28;5032285;28;20060;-58
2022/03/06 11:33:13;;;;;;;14.85;8.07;;;;;;;11.62;31.41;99088.13;5031678;28;20060;-58
2022/03/06 11:36:18;;;;;;;13.70;6.93;;;;;;;9.96;30.88;99082.84;5031637;28;20053;-58
2022/03/06 11:39:04;;;;;;;14.18;7.32;;;;;;;10.91;29.54;99076.97;5032361;28;20503;-58
2022/03/06 11:41:49;;;;;;;16.05;7.80;;;;;;;11.16;28.57;99080.59;5031989;28;20416;-58
2022/03/06 11:45:02;;;;;;;15.60;8.05;;;;;;;9.59;29.25;99076.28;5031964;28;20381;-58
2022/03/06 11:47:47;;;;;;;16.67;8.02;;;;;;;9.81;30.39;99074.97;5037648;28;20508;-59
2022/03/06 11:50:33;;;;;;;16.33;7.18;;;;;;;11.48;28.42;99075.94;5031947;28;20064;-58
2022/03/06 11:53:20;;;;;;;15.68;8.80;;;;;;;10.25;28.88;99069.72;5022391;28;20068;-58
2022/03/06 11:56:31;;;;;;;16.90;8.35;;;;;;;7.91;33.25;99070.72;5029727;28;20080;-58
2022/03/06 11:59:17;;;;;;;13.80;7.43;;;;;;;7.93;33.24;99073.25;5031407;28;20060;-58
2022/03/06 12:02:13;;;;;;;16.00;7.70;;;;;;;8.99;30.96;99068.38;5013413;28;20057;-58
2022/03/06 12:04:59;;;;;;;14.93;8.77;;;;;;;8.61;31.65;99058.31;5024663;28;20048;-58
2022/03/06 12:07:50;;;;;;;16.65;8.95;;;;;;;9.28;31.44;99064.16;5011780;28;20522;-58
2022/03/06 12:10:36;;;;;;;16.10;8.70;;;;;;;11.26;28.56;99061.66;5011848;28;20482;-58
2022/03/06 12:13:23;;;;;;;19.23;9.52;;;;;;;9.91;29.59;99061.31;5011816;28;20068;-58
2022/03/06 12:16:10;;;;;;;18.67;9.10;;;;;;;8.63;31.83;99065.13;5011512;28;20393;-58
2022/03/06 12:19:05;;;;;;;16.52;9.60;;;;;;;7.80;33.84;99060.81;5011418;28;20140;-58
2022/03/06 12:21:51;;;;;;;19.35;10.23;;;;;;;6.55;36.02;99061.72;5011816;28;20060;-58
2022/03/06 12:24:37;;;;;;;24.63;11.25;;;;;;;6.79;36.61;99061.47;5010763;28;20065;-58
2022/03/06 12:27:24;;;;;;;18.98;10.10;;;;;;;7.32;35.80;99066.72;5010673;28;20060;-60
2022/03/06 12:30:12;;;;;;;18.70;9.07;;;;;;;6.20;41.99;99062.44;5016719;28;20056;-58
2022/03/06 12:33:25;;;;;;;19.73;10.50;;;;;;;6.35;38.73;99055.69;5024598;28;20064;-59
2022/03/06 12:36:13;;;;;;;;;;;;;;;6.68;38.68;99064.59;5030220;28;20052;-58
2022/03/06 12:39:01;;;;;;;19.13;10.80;;;;;;;7.69;34.22;99057.94;5027160;28;19913;-58
2022/03/06 12:41:47;;;;;;;21.83;10.43;;;;;;;6.92;36.29;99060.91;5026350;28;20045;-59
2022/03/06 12:44:37;;;;;;;19.48;10.95;;;;;;;6.17;37.82;99057.38;5030135;28;20533;-59
2022/03/06 12:47:23;;;;;;;19.60;10.60;;;;;;;5.19;39.83;99052.03;5031000;28;20072;-59
2022/03/06 12:50:17;;;;;;;23.02;11.38;;;;;;;5.43;39.38;99055.34;5033303;28;20068;-59
2022/03/06 12:53:03;;;;;;;18.60;10.13;;;;;;;8.06;35.30;99040.34;5021886;28;20048;-58
2022/03/06 12:55:56;;;;;;;22.55;11.60;;;;;;;6.49;37.29;99055.06;5031062;28;20056;-62
2022/03/06 12:58:42;;;;;;;21.08;10.63;;;;;;;6.01;38.50;99045.06;5031042;28;20057;-59